createdAt,value
2023-03-11T00:01:01.000Z,98505.38
2023-03-11T00:03:24.911Z,98512.47
2023-03-11T00:05:48.871Z,98520.31
2023-03-11T00:08:17.823Z,98523.34
2023-03-11T00:10:44.187Z,98533.19
2023-03-11T00:13:12.473Z,98544.91
2023-03-11T00:15:36.783Z,98542.19
2023-03-11T00:18:00.784Z,98557.28
2023-03-11T00:20:27.497Z,98552.09
2023-03-11T00:22:51.541Z,98552.44
2023-03-11T00:25:16.612Z,98566.97
2023-03-11T00:27:40.174Z,98580.81
2023-03-11T00:30:03.939Z,98587.47
2023-03-11T00:32:27.559Z,98582.28
2023-03-11T00:34:51.317Z,98594.94
2023-03-11T00:37:15.097Z,98593.50
2023-03-11T00:39:38.702Z,98602.06
2023-03-11T00:42:03.875Z,98609.13
2023-03-11T00:44:27.439Z,98601.91
2023-03-11T00:46:50.960Z,98613.03
2023-03-11T00:49:14.538Z,98619.06
2023-03-11T00:51:38.177Z,98623.00
2023-03-11T00:54:01.956Z,98621.44
2023-03-11T00:56:26.617Z,98624.09
2023-03-11T00:58:52.024Z,98617.09
2023-03-11T01:01:18.986Z,98639.47
2023-03-11T01:03:43.204Z,98650.06
2023-03-11T01:06:08.144Z,98647.31
2023-03-11T01:08:32.548Z,98663.28
2023-03-11T01:10:56.165Z,98670.28
2023-03-11T01:13:19.991Z,98668.13
2023-03-11T01:15:45.060Z,98675.19
2023-03-11T01:18:09.078Z,98681.47
2023-03-11T01:20:33.341Z,98697.44
2023-03-11T01:22:57.024Z,98697.81
2023-03-11T01:25:23.268Z,98717.78
2023-03-11T01:27:47.219Z,98726.94
2023-03-11T01:30:23.113Z,98736.22
2023-03-11T01:32:48.602Z,98737.53
2023-03-11T01:35:13.838Z,98746.78
2023-03-11T01:37:37.408Z,98757.13
2023-03-11T01:40:01.178Z,98758.31
2023-03-11T01:42:25.127Z,98768.41
2023-03-11T01:44:49.515Z,98767.13
2023-03-11T01:47:40.940Z,98786.78
2023-03-11T01:50:13.389Z,98793.91
2023-03-11T01:52:37.859Z,98791.69
2023-03-11T01:55:01.494Z,98806.88
2023-03-11T01:57:25.067Z,98807.63
2023-03-11T01:59:53.394Z,98823.50
2023-03-11T02:02:22.390Z,98826.41
2023-03-11T02:04:47.156Z,98837.00
2023-03-11T02:07:13.887Z,98847.34
2023-03-11T02:09:37.876Z,98853.34
2023-03-11T02:12:02.306Z,98863.31
2023-03-11T02:14:29.278Z,98866.78
2023-03-11T02:16:52.953Z,98874.06
2023-03-11T02:19:28.358Z,98881.72
2023-03-11T02:21:52.959Z,98897.41
2023-03-11T02:24:23.593Z,98903.75
2023-03-11T02:26:56.665Z,98919.25
2023-03-11T02:29:22.836Z,98924.84
2023-03-11T02:31:47.295Z,98939.59
2023-03-11T02:34:20.477Z,98955.91
2023-03-11T02:36:45.730Z,98961.13
2023-03-11T02:39:11.649Z,98971.22
2023-03-11T02:41:39.433Z,98970.75
2023-03-11T02:44:06.674Z,98984.00
2023-03-11T02:46:30.636Z,98985.63
2023-03-11T02:48:55.527Z,98994.81
2023-03-11T02:51:19.151Z,98998.91
2023-03-11T02:53:48.550Z,99020.47
2023-03-11T02:56:12.444Z,99017.75
2023-03-11T02:58:36.197Z,99040.59
2023-03-11T03:01:01.260Z,99044.69
2023-03-11T03:03:24.986Z,99046.72
2023-03-11T03:05:48.647Z,99063.53
2023-03-11T03:08:12.391Z,99068.59
2023-03-11T03:10:36.075Z,99065.88
2023-03-11T03:12:59.916Z,99089.97
2023-03-11T03:15:23.602Z,99088.91
2023-03-11T03:17:51.485Z,99102.75
2023-03-11T03:20:16.518Z,99116.31
2023-03-11T03:22:45.232Z,99120.47
2023-03-11T03:25:12.485Z,99129.38
2023-03-11T03:27:36.745Z,99132.00
2023-03-11T03:30:02.052Z,99145.09
2023-03-11T03:32:25.797Z,99151.97
2023-03-11T03:34:51.125Z,99164.69
2023-03-11T03:37:14.669Z,99163.00
2023-03-11T03:39:38.244Z,99173.06
2023-03-11T03:42:02.253Z,99187.16
2023-03-11T03:44:28.425Z,99203.47
2023-03-11T03:46:51.948Z,99210.66
2023-03-11T03:49:15.935Z,99212.97
2023-03-11T03:51:41.913Z,99222.31
2023-03-11T03:54:10.599Z,99235.34
2023-03-11T03:56:34.708Z,99248.97
2023-03-11T03:58:58.748Z,99250.16
2023-03-11T04:01:27.053Z,99260.44
2023-03-11T04:03:51.270Z,99261.25
2023-03-11T04:06:19.878Z,99270.47
2023-03-11T04:08:48.983Z,99274.78
2023-03-11T04:11:12.974Z,99285.41
2023-03-11T04:13:36.736Z,99292.16
2023-03-11T04:16:01.539Z,99294.94
2023-03-11T04:18:25.367Z,99307.09
2023-03-11T04:20:48.962Z,99316.75
2023-03-11T04:23:13.030Z,99317.47
2023-03-11T04:25:38.192Z,99322.34
2023-03-11T04:28:01.940Z,99323.41
2023-03-11T04:30:26.035Z,99329.88
2023-03-11T04:32:53.014Z,99335.25
2023-03-11T04:35:16.939Z,99337.81
2023-03-11T04:37:41.623Z,99353.25
2023-03-11T04:40:07.004Z,99354.22
2023-03-11T04:42:32.971Z,99373.28
2023-03-11T04:44:57.000Z,99370.69
2023-03-11T04:47:21.766Z,99378.34
2023-03-11T04:49:45.316Z,99388.75
2023-03-11T04:52:09.222Z,99393.56
2023-03-11T04:54:32.856Z,99396.19
2023-03-11T04:56:57.016Z,99399.06
2023-03-11T04:59:22.440Z,99407.47
2023-03-11T05:01:47.701Z,99419.25
2023-03-11T05:04:12.513Z,99432.56
2023-03-11T05:06:36.469Z,99439.59
2023-03-11T05:09:00.801Z,99439.56
2023-03-11T05:11:24.949Z,99454.75
2023-03-11T05:13:48.959Z,99454.31
2023-03-11T05:16:14.207Z,99468.56
2023-03-11T05:18:38.031Z,99477.38
2023-03-11T05:21:02.470Z,99478.47
2023-03-11T05:23:28.631Z,99476.66
2023-03-11T05:25:52.298Z,99488.09
2023-03-11T05:28:16.064Z,99486.44
2023-03-11T05:30:45.939Z,99504.91
2023-03-11T05:33:11.137Z,99508.34
2023-03-11T05:35:34.812Z,99509.84
2023-03-11T05:37:58.572Z,99513.28
2023-03-11T05:40:24.810Z,99524.69
2023-03-11T05:42:48.781Z,99534.31
2023-03-11T05:45:12.986Z,99546.59
2023-03-11T05:47:38.327Z,99553.03
2023-03-11T05:50:04.387Z,99547.31
2023-03-11T05:52:28.287Z,99560.03
2023-03-11T05:54:53.220Z,99567.03
2023-03-11T05:57:21.129Z,99558.50
2023-03-11T05:59:44.705Z,99570.94
2023-03-11T06:02:08.407Z,99563.69
2023-03-11T06:04:32.206Z,99563.22
2023-03-11T06:06:59.316Z,99578.84
2023-03-11T06:09:26.294Z,99583.66
2023-03-11T06:11:50.708Z,99585.19
2023-03-11T06:14:16.891Z,99583.94
2023-03-11T06:16:44.060Z,99596.44
2023-03-11T06:19:08.053Z,99600.50
2023-03-11T06:21:35.429Z,99611.41
2023-03-11T06:24:00.497Z,99617.66
2023-03-11T06:26:26.181Z,99617.25
2023-03-11T06:28:51.536Z,99618.00
2023-03-11T06:31:18.162Z,99624.84
2023-03-11T06:33:42.042Z,99631.88
2023-03-11T06:36:07.759Z,99644.06
2023-03-11T06:38:31.955Z,99656.44
2023-03-11T06:41:01.341Z,99653.63
2023-03-11T06:43:25.294Z,99655.66
2023-03-11T06:45:49.739Z,99664.38
2023-03-11T06:48:13.611Z,99681.50
2023-03-11T06:50:37.649Z,99685.09
2023-03-11T06:53:02.949Z,99704.19
2023-03-11T06:55:27.221Z,99706.34
2023-03-11T06:57:52.275Z,99713.56
2023-03-11T07:00:18.027Z,99713.56
2023-03-11T07:02:46.978Z,99721.31
2023-03-11T07:05:12.668Z,99728.50
2023-03-11T07:07:36.555Z,99726.22
2023-03-11T07:10:00.555Z,99732.56
2023-03-11T07:12:25.457Z,99742.66
2023-03-11T07:14:50.497Z,99744.19
2023-03-11T07:17:14.262Z,99747.78
2023-03-11T07:19:45.401Z,99752.59
2023-03-11T07:22:08.978Z,99761.59
2023-03-11T07:24:32.499Z,99761.88
2023-03-11T07:26:56.137Z,99776.34
2023-03-11T07:29:20.287Z,99779.66
2023-03-11T07:31:45.259Z,99802.06
2023-03-11T07:34:11.504Z,99798.09
2023-03-11T07:36:35.199Z,99806.16
2023-03-11T07:39:04.212Z,99810.78
2023-03-11T07:41:28.470Z,99821.94
2023-03-11T07:43:55.417Z,99824.59
2023-03-11T07:46:19.913Z,99824.66
2023-03-11T07:48:45.423Z,99829.47
2023-03-11T07:51:12.945Z,99839.34
2023-03-11T07:53:36.619Z,99841.03
2023-03-11T07:56:01.454Z,99849.44
2023-03-11T07:58:25.134Z,99856.75
2023-03-11T08:00:48.684Z,99860.25
2023-03-11T08:03:12.325Z,99869.91
2023-03-11T08:05:37.265Z,99865.56
2023-03-11T08:08:00.771Z,99879.84
2023-03-11T08:10:24.378Z,99886.09
2023-03-11T08:12:47.888Z,99878.59
2023-03-11T08:15:12.671Z,99881.94
2023-03-11T08:17:36.280Z,99888.47
2023-03-11T08:19:59.888Z,99899.06
2023-03-11T08:22:24.777Z,99902.09
2023-03-11T08:24:53.359Z,99908.53
2023-03-11T08:27:16.863Z,99914.63
2023-03-11T08:29:40.436Z,99921.75
2023-03-11T08:32:05.601Z,99932.75
2023-03-11T08:34:29.264Z,99937.03
2023-03-11T08:36:52.866Z,99946.91
2023-03-11T08:39:17.820Z,99948.94
2023-03-11T08:41:41.332Z,99946.47
2023-03-11T08:44:05.029Z,99950.81
2023-03-11T08:46:30.787Z,99961.44
2023-03-11T08:48:55.027Z,99963.63
2023-03-11T08:51:19.132Z,99969.94
2023-03-11T08:53:42.919Z,99977.75
2023-03-11T08:56:09.085Z,99981.63
2023-03-11T08:58:32.648Z,99984.66
2023-03-11T09:00:56.326Z,99981.84
2023-03-11T09:03:19.881Z,99988.72
2023-03-11T09:05:43.485Z,99988.94
2023-03-11T09:08:07.436Z,99994.34
2023-03-11T09:10:31.002Z,99998.69
2023-03-11T09:12:55.939Z,100005.84
2023-03-11T09:15:19.703Z,100011.81
2023-03-11T09:17:43.253Z,100017.47
2023-03-11T09:20:08.528Z,100013.19
2023-03-11T09:22:32.290Z,100021.06
2023-03-11T09:24:55.893Z,100021.91
2023-03-11T09:27:19.466Z,100026.47
2023-03-11T09:29:44.505Z,100029.28
2023-03-11T09:32:08.568Z,100037.03
2023-03-11T09:34:32.073Z,100038.19
2023-03-11T09:36:55.657Z,100046.78
2023-03-11T09:39:19.242Z,100054.53
2023-03-11T09:41:58.525Z,100058.00
2023-03-11T09:44:30.207Z,100056.38
2023-03-11T09:47:51.304Z,100055.78
2023-03-11T09:50:27.538Z,100064.81
2023-03-11T09:53:28.909Z,100068.75
2023-03-11T09:55:55.193Z,100074.09
2023-03-11T09:58:25.775Z,100089.09
2023-03-11T10:00:52.090Z,100080.94
2023-03-11T10:03:33.860Z,100084.91
2023-03-11T10:06:09.510Z,100088.81
2023-03-11T10:08:41.723Z,100085.69
2023-03-11T10:11:18.077Z,100083.91
2023-03-11T10:13:48.646Z,100097.34
2023-03-11T10:16:20.568Z,100101.03
2023-03-11T10:18:57.280Z,100107.09
2023-03-11T10:21:38.298Z,100106.91
2023-03-11T10:24:19.106Z,100109.97
2023-03-11T10:26:46.735Z,100116.88
2023-03-11T10:29:19.421Z,100114.78
2023-03-11T10:31:48.745Z,100119.59
2023-03-11T10:34:21.755Z,100131.63
2023-03-11T10:36:59.448Z,100126.81
2023-03-11T10:39:24.807Z,100133.06
2023-03-11T10:41:55.754Z,100141.63
2023-03-11T10:44:25.294Z,100137.78
2023-03-11T10:46:48.868Z,100149.97
2023-03-11T10:49:17.966Z,100156.97
2023-03-11T10:51:42.406Z,100155.34
2023-03-11T10:54:06.492Z,100152.31
2023-03-11T10:56:33.917Z,100150.38
2023-03-11T10:58:57.702Z,100155.34
2023-03-11T11:01:21.693Z,100156.28
2023-03-11T11:03:47.555Z,100168.47
2023-03-11T11:06:24.040Z,100162.31
2023-03-11T11:08:47.833Z,100167.06
2023-03-11T11:11:24.142Z,100170.22
2023-03-11T11:13:58.080Z,100166.97
2023-03-11T11:16:22.557Z,100175.00
2023-03-11T11:18:49.451Z,100166.97
2023-03-11T11:21:17.642Z,100168.28
2023-03-11T11:23:44.937Z,100168.53
2023-03-11T11:26:18.372Z,100173.50
2023-03-11T11:28:41.993Z,100181.09
2023-03-11T11:31:07.815Z,100179.97
2023-03-11T11:33:33.594Z,100182.28
2023-03-11T11:36:00.473Z,100184.81
2023-03-11T11:38:28.984Z,100178.19
2023-03-11T11:40:53.566Z,100188.13
2023-03-11T11:43:21.614Z,100178.41
2023-03-11T11:45:48.422Z,100180.09
2023-03-11T11:48:21.138Z,100180.28
2023-03-11T11:50:49.669Z,100181.63
2023-03-11T11:53:29.033Z,100187.16
2023-03-11T11:55:54.332Z,100187.38
2023-03-11T11:58:17.873Z,100192.78
2023-03-11T12:00:57.679Z,100194.72
2023-03-11T12:03:52.884Z,100186.59
2023-03-11T12:06:24.155Z,100196.53
2023-03-11T12:09:05.488Z,100201.41
2023-03-11T12:11:36.739Z,100198.25
2023-03-11T12:14:06.021Z,100204.03
2023-03-11T12:16:42.254Z,100206.34
2023-03-11T12:19:19.243Z,100197.09
2023-03-11T12:22:11.818Z,100206.66
2023-03-11T12:25:06.567Z,100212.22
2023-03-11T12:27:36.098Z,100216.59
2023-03-11T12:30:05.147Z,100223.28
2023-03-11T12:32:35.318Z,100220.06
2023-03-11T12:35:05.509Z,100222.06
2023-03-11T12:37:29.137Z,100231.34
2023-03-11T12:39:54.080Z,100236.34
2023-03-11T12:42:20.919Z,100239.69
2023-03-11T12:44:45.598Z,100235.59
2023-03-11T12:47:28.976Z,100235.25
2023-03-11T12:49:55.290Z,100232.75
2023-03-11T12:52:23.329Z,100231.25
2023-03-11T12:54:48.644Z,100235.97
2023-03-11T12:57:35.963Z,100238.47
2023-03-11T13:00:25.943Z,100242.25
2023-03-11T13:03:33.870Z,100249.63
2023-03-11T13:06:12.775Z,100246.81
2023-03-11T13:08:46.185Z,100255.72
2023-03-11T13:11:38.651Z,100260.94
2023-03-11T13:14:29.357Z,100263.97
2023-03-11T13:16:52.992Z,100260.28
2023-03-11T13:19:56.201Z,100271.81
2023-03-11T13:23:16.711Z,100272.59
2023-03-11T13:25:42.792Z,100273.75
2023-03-11T13:28:25.909Z,100278.78
2023-03-11T13:30:58.437Z,100272.44
2023-03-11T13:33:33.426Z,100276.59
2023-03-11T13:36:11.487Z,100294.09
2023-03-11T13:38:53.494Z,100300.00
2023-03-11T13:41:22.463Z,100294.13
2023-03-11T13:43:48.803Z,100297.28
2023-03-11T13:46:30.015Z,100297.09
2023-03-11T13:49:04.178Z,100296.34
2023-03-11T13:51:37.774Z,100298.41
2023-03-11T13:54:06.305Z,100301.81
2023-03-11T13:56:33.029Z,100307.03
2023-03-11T13:59:16.717Z,100311.78
2023-03-11T14:01:43.211Z,100314.34
2023-03-11T14:04:12.606Z,100318.88
2023-03-11T14:06:36.246Z,100322.91
2023-03-11T14:08:59.756Z,100321.31
2023-03-11T14:11:29.154Z,100319.19
2023-03-11T14:13:53.922Z,100320.41
2023-03-11T14:16:21.385Z,100327.50
2023-03-11T14:18:48.461Z,100319.22
2023-03-11T14:21:17.286Z,100315.50
2023-03-11T14:23:44.334Z,100327.59
2023-03-11T14:26:10.794Z,100321.09
2023-03-11T14:28:40.146Z,100327.38
2023-03-11T14:31:05.370Z,100326.81
2023-03-11T14:33:29.438Z,100326.25
2023-03-11T14:36:00.218Z,100322.72
2023-03-11T14:38:26.395Z,100330.63
2023-03-11T14:40:55.229Z,100336.78
2023-03-11T14:43:21.393Z,100338.50
2023-03-11T14:45:45.389Z,100339.72
2023-03-11T14:48:18.054Z,100346.84
2023-03-11T14:50:41.997Z,100352.44
2023-03-11T14:53:15.227Z,100361.78
2023-03-11T14:55:42.900Z,100353.06
2023-03-11T14:58:12.725Z,100358.44
2023-03-11T15:00:41.825Z,100352.84
2023-03-11T15:03:17.412Z,100360.81
2023-03-11T15:05:49.433Z,100354.56
2023-03-11T15:08:18.591Z,100352.41
2023-03-11T15:11:03.390Z,100353.41
2023-03-11T15:13:27.255Z,100361.81
2023-03-11T15:15:58.506Z,100352.63
2023-03-11T15:18:27.391Z,100351.41
2023-03-11T15:21:07.118Z,100349.78
2023-03-11T15:23:32.555Z,100346.09
2023-03-11T15:25:56.095Z,100350.84
2023-03-11T15:28:25.333Z,100356.44
2023-03-11T15:30:49.073Z,100362.00
2023-03-11T15:33:24.197Z,100349.66
2023-03-11T15:35:49.752Z,100352.63
2023-03-11T15:38:21.539Z,100359.94
2023-03-11T15:40:55.473Z,100366.22
2023-03-11T15:43:28.194Z,100364.53
2023-03-11T15:45:53.576Z,100373.00
2023-03-11T15:48:17.248Z,100363.88
2023-03-11T15:50:53.966Z,100375.56
2023-03-11T15:53:18.212Z,100376.59
2023-03-11T15:55:41.730Z,100372.25
2023-03-11T15:58:09.805Z,100376.00
2023-03-11T16:00:33.902Z,100379.34
2023-03-11T16:02:57.542Z,100384.63
2023-03-11T16:05:23.212Z,100383.25
2023-03-11T16:07:47.237Z,100385.31
2023-03-11T16:10:12.795Z,100395.75
2023-03-11T16:12:36.363Z,100390.63
2023-03-11T16:15:01.271Z,100397.28
2023-03-11T16:17:24.846Z,100400.44
2023-03-11T16:19:49.693Z,100400.97
2023-03-11T16:22:19.815Z,100403.19
2023-03-11T16:24:43.582Z,100413.13
2023-03-11T16:27:07.277Z,100419.13
2023-03-11T16:29:31.054Z,100416.00
2023-03-11T16:31:56.135Z,100424.16
2023-03-11T16:34:19.654Z,100425.19
2023-03-11T16:36:43.231Z,100429.09
2023-03-11T16:39:06.784Z,100437.13
2023-03-11T16:41:30.394Z,100436.78
2023-03-11T16:43:54.522Z,100441.22
2023-03-11T16:46:18.115Z,100443.50
2023-03-11T16:48:43.082Z,100447.69
2023-03-11T16:51:07.899Z,100445.44
2023-03-11T16:53:31.626Z,100446.97
2023-03-11T16:55:55.427Z,100445.19
2023-03-11T16:58:19.003Z,100445.00
2023-03-11T17:00:42.959Z,100453.22
2023-03-11T17:03:07.241Z,100444.56
2023-03-11T17:05:32.343Z,100454.06
2023-03-11T17:08:00.151Z,100448.97
2023-03-11T17:10:24.536Z,100462.81
2023-03-11T17:12:48.074Z,100465.81
2023-03-11T17:15:12.414Z,100465.53
2023-03-11T17:17:35.985Z,100467.78
2023-03-11T17:19:59.604Z,100477.66
2023-03-11T17:22:24.555Z,100469.47
2023-03-11T17:24:48.304Z,100475.94
2023-03-11T17:27:11.927Z,100477.63
2023-03-11T17:29:35.595Z,100479.00
2023-03-11T17:31:59.186Z,100482.22
2023-03-11T17:34:23.028Z,100486.44
2023-03-11T17:36:46.605Z,100477.50
2023-03-11T17:39:11.604Z,100482.38
2023-03-11T17:41:35.846Z,100476.38
2023-03-11T17:43:59.509Z,100485.66
2023-03-11T17:46:23.739Z,100491.44
2023-03-11T17:48:49.866Z,100486.69
2023-03-11T17:51:16.369Z,100497.13
2023-03-11T17:53:41.124Z,100495.88
2023-03-11T17:56:08.028Z,100499.22
2023-03-11T17:58:31.790Z,100505.97
2023-03-11T18:00:55.383Z,100497.28
2023-03-11T18:03:18.946Z,100496.31
2023-03-11T18:05:42.483Z,100500.41
2023-03-11T18:08:06.466Z,100501.03
2023-03-11T18:10:30.215Z,100496.88
2023-03-11T18:12:55.134Z,100493.97
2023-03-11T18:15:19.919Z,100502.34
2023-03-11T18:17:43.868Z,100499.75
2023-03-11T18:20:08.968Z,100504.91
2023-03-11T18:22:35.203Z,100509.91
2023-03-11T18:24:59.010Z,100517.81
2023-03-11T18:27:24.472Z,100520.34
2023-03-11T18:29:49.385Z,100521.06
2023-03-11T18:32:13.144Z,100523.44
2023-03-11T18:34:37.595Z,100525.38
2023-03-11T18:37:01.117Z,100534.81
2023-03-11T18:39:24.702Z,100536.38
2023-03-11T18:41:48.326Z,100531.94
2023-03-11T18:44:12.112Z,100534.09
2023-03-11T18:46:37.189Z,100532.50
2023-03-11T18:49:02.707Z,100537.25
2023-03-11T18:51:27.029Z,100529.09
2023-03-11T18:53:50.673Z,100528.22
2023-03-11T18:56:16.522Z,100534.09
2023-03-11T18:58:40.172Z,100526.56
2023-03-11T19:01:08.126Z,100529.66
2023-03-11T19:03:33.170Z,100534.44
2023-03-11T19:05:56.693Z,100529.53
2023-03-11T19:08:20.631Z,100534.81
2023-03-11T19:10:44.794Z,100529.38
2023-03-11T19:13:08.546Z,100529.88
2023-03-11T19:15:32.129Z,100539.75
2023-03-11T19:18:06.318Z,100532.19
2023-03-11T19:20:32.146Z,100532.00
2023-03-11T19:22:55.751Z,100537.56
2023-03-11T19:25:21.185Z,100539.81
2023-03-11T19:27:44.695Z,100542.19
2023-03-11T19:30:10.314Z,100534.94
2023-03-11T19:32:33.910Z,100540.03
2023-03-11T19:34:57.496Z,100544.41
2023-03-11T19:37:22.478Z,100545.41
2023-03-11T19:39:46.300Z,100546.97
2023-03-11T19:42:09.952Z,100542.03
2023-03-11T19:44:33.573Z,100548.13
2023-03-11T19:46:57.154Z,100548.69
2023-03-11T19:49:21.944Z,100537.88
2023-03-11T19:51:50.027Z,100539.03
2023-03-11T19:54:16.335Z,100541.03
2023-03-11T19:56:40.411Z,100541.13
2023-03-11T19:59:04.221Z,100536.75
2023-03-11T20:01:30.273Z,100546.34
2023-03-11T20:03:53.957Z,100534.09
2023-03-11T20:06:20.690Z,100544.19
2023-03-11T20:08:45.430Z,100534.91
2023-03-11T20:11:10.828Z,100529.25
2023-03-11T20:13:35.842Z,100532.69
2023-03-11T20:16:08.623Z,100533.22
2023-03-11T20:18:32.255Z,100537.19
2023-03-11T20:20:55.845Z,100534.31
2023-03-11T20:23:19.464Z,100547.38
2023-03-11T20:25:43.850Z,100543.25
2023-03-11T20:28:09.658Z,100537.38
2023-03-11T20:30:33.387Z,100545.84
2023-03-11T20:32:57.337Z,100545.25
2023-03-11T20:35:21.648Z,100551.00
2023-03-11T20:37:45.916Z,100550.50
2023-03-11T20:40:13.139Z,100552.19
2023-03-11T20:42:36.834Z,100552.25
2023-03-11T20:45:01.901Z,100555.41
2023-03-11T20:47:25.793Z,100560.91
2023-03-11T20:49:49.350Z,100553.25
2023-03-11T20:52:13.107Z,100554.28
2023-03-11T20:54:36.692Z,100545.31
2023-03-11T20:57:00.486Z,100555.78
2023-03-11T20:59:24.021Z,100557.75
2023-03-11T21:01:49.342Z,100560.00
2023-03-11T21:04:15.997Z,100551.69
2023-03-11T21:06:41.436Z,100556.28
2023-03-11T21:09:07.456Z,100548.78
2023-03-11T21:11:31.516Z,100547.38
2023-03-11T21:13:56.436Z,100547.38
2023-03-11T21:16:20.267Z,100553.97
2023-03-11T21:18:49.181Z,100557.34
2023-03-11T21:21:14.004Z,100562.50
2023-03-11T21:23:37.660Z,100559.44
2023-03-11T21:26:02.134Z,100546.47
2023-03-11T21:28:25.946Z,100551.69
2023-03-11T21:30:49.713Z,100555.84
2023-03-11T21:33:16.319Z,100560.63
2023-03-11T21:35:41.753Z,100553.56
2023-03-11T21:38:05.588Z,100556.72
2023-03-11T21:40:29.326Z,100546.13
2023-03-11T21:42:52.830Z,100548.19
2023-03-11T21:45:17.528Z,100545.97
2023-03-11T21:47:41.091Z,100540.41
2023-03-11T21:50:05.053Z,100543.06
2023-03-11T21:52:30.102Z,100543.97
2023-03-11T21:54:53.766Z,100543.38
2023-03-11T21:57:17.351Z,100540.75
2023-03-11T21:59:41.117Z,100546.13
2023-03-11T22:02:04.838Z,100535.97
2023-03-11T22:04:28.744Z,100537.25
2023-03-11T22:06:52.571Z,100542.84
2023-03-11T22:09:17.705Z,100542.53
2023-03-11T22:11:41.312Z,100538.69
2023-03-11T22:14:04.957Z,100533.38
2023-03-11T22:16:28.624Z,100535.03
2023-03-11T22:18:52.656Z,100531.59
2023-03-11T22:21:17.785Z,100531.88
2023-03-11T22:23:41.372Z,100535.38
2023-03-11T22:26:06.496Z,100534.09
2023-03-11T22:28:32.964Z,100537.88
2023-03-11T22:30:56.529Z,100535.44
2023-03-11T22:33:20.617Z,100539.94
2023-03-11T22:35:52.050Z,100538.19
2023-03-11T22:38:15.705Z,100541.81
2023-03-11T22:40:39.296Z,100542.38
2023-03-11T22:43:04.236Z,100546.22
2023-03-11T22:45:27.973Z,100549.56
2023-03-11T22:47:51.586Z,100545.09
2023-03-11T22:50:15.087Z,100550.19
2023-03-11T22:52:38.675Z,100546.91
2023-03-11T22:55:02.176Z,100546.16
2023-03-11T22:57:25.841Z,100548.34
2023-03-11T22:59:50.844Z,100546.38
2023-03-11T23:02:14.462Z,100548.75
2023-03-11T23:04:38.045Z,100547.16
2023-03-11T23:07:01.623Z,100548.16
2023-03-11T23:09:25.773Z,100552.38
2023-03-11T23:11:49.540Z,100536.94
2023-03-11T23:14:13.109Z,100537.16
2023-03-11T23:16:38.096Z,100541.09
2023-03-11T23:19:02.198Z,100545.22
2023-03-11T23:21:28.846Z,100548.22
2023-03-11T23:23:52.737Z,100551.78
2023-03-11T23:26:17.308Z,100542.81
2023-03-11T23:28:41.535Z,100551.19
2023-03-11T23:31:06.009Z,100547.88
2023-03-11T23:33:31.112Z,100549.34
2023-03-11T23:35:54.788Z,100552.81
2023-03-11T23:38:18.332Z,100556.03
2023-03-11T23:40:42.699Z,100555.00
2023-03-11T23:43:06.226Z,100558.06
2023-03-11T23:45:29.781Z,100564.47
2023-03-11T23:47:53.348Z,100547.06
2023-03-11T23:50:18.567Z,100558.81
2023-03-11T23:52:42.094Z,100558.75
2023-03-11T23:55:06.750Z,100559.16
2023-03-11T23:57:30.301Z,100566.31
2023-03-11T23:59:53.908Z,100561.56
